createdAt,value
2023-03-19T00:00:34.958Z,3.60
2023-03-19T00:05:36.780Z,2.95
2023-03-19T00:10:39.669Z,3.20
2023-03-19T00:15:41.674Z,2.90
2023-03-19T00:20:43.684Z,3.17
2023-03-19T00:25:45.557Z,2.55
2023-03-19T00:30:47.351Z,2.50
2023-03-19T00:35:49.258Z,3.05
2023-03-19T00:40:51.038Z,2.53
2023-03-19T00:45:53.043Z,2.97
2023-03-19T00:50:54.979Z,2.40
2023-03-19T00:55:56.738Z,2.42
2023-03-19T01:00:58.564Z,2.55
2023-03-19T01:06:00.738Z,2.35
2023-03-19T01:11:08.184Z,2.08
2023-03-19T01:16:10.398Z,2.72
2023-03-19T01:21:12.192Z,2.50
2023-03-19T01:26:13.981Z,2.78
2023-03-19T01:31:16.625Z,2.50
2023-03-19T01:36:18.465Z,2.70
2023-03-19T01:41:21.045Z,2.30
2023-03-19T01:46:36.605Z,2.67
2023-03-19T01:51:42.194Z,2.55
2023-03-19T01:56:47.064Z,2.50
2023-03-19T02:02:03.474Z,3.20
2023-03-19T02:07:07.638Z,2.88
2023-03-19T02:12:09.920Z,3.13
2023-03-19T02:17:11.801Z,3.20
2023-03-19T02:22:16.928Z,2.95
2023-03-19T02:27:19.023Z,3.08
2023-03-19T02:32:20.989Z,3.50
2023-03-19T02:37:33.727Z,3.65
2023-03-19T02:42:35.879Z,3.80
2023-03-19T02:47:37.804Z,3.25
2023-03-19T02:52:39.913Z,4.03
2023-03-19T02:57:41.690Z,4.10
2023-03-19T03:02:43.474Z,4.30
2023-03-19T03:07:45.360Z,4.50
2023-03-19T03:12:47.153Z,4.57
2023-03-19T03:17:49.210Z,4.72
2023-03-19T03:22:52.042Z,4.55
2023-03-19T03:27:53.898Z,5.18
2023-03-19T03:32:55.782Z,5.07
2023-03-19T03:37:58.057Z,5.97
2023-03-19T03:42:59.894Z,6.30
2023-03-19T03:48:01.909Z,5.75
2023-03-19T03:53:03.957Z,6.25
2023-03-19T03:58:05.764Z,7.00
2023-03-19T04:03:07.867Z,6.75
2023-03-19T04:08:09.910Z,6.70
2023-03-19T04:13:12.659Z,7.45
2023-03-19T04:18:14.721Z,8.35
2023-03-19T04:23:16.992Z,9.00
2023-03-19T04:28:18.837Z,9.38
2023-03-19T04:33:20.591Z,8.73
2023-03-19T04:38:23.204Z,8.88
2023-03-19T04:43:25.765Z,9.02
2023-03-19T04:48:28.402Z,10.35
2023-03-19T04:53:30.701Z,9.73
2023-03-19T04:58:32.753Z,9.43
2023-03-19T05:03:34.643Z,8.73
2023-03-19T05:08:36.742Z,9.45
2023-03-19T05:13:38.714Z,8.88
2023-03-19T05:18:41.383Z,8.75
2023-03-19T05:23:43.841Z,9.13
2023-03-19T05:28:45.611Z,8.35
2023-03-19T05:33:47.392Z,7.88
2023-03-19T05:38:49.125Z,8.10
2023-03-19T05:43:51.407Z,7.43
2023-03-19T05:48:53.178Z,7.22
2023-03-19T05:53:54.971Z,6.90
2023-03-19T05:58:56.773Z,7.85
2023-03-19T06:03:58.694Z,7.28
2023-03-19T06:09:00.590Z,8.02
2023-03-19T06:14:02.412Z,8.95
2023-03-19T06:19:04.267Z,8.15
2023-03-19T06:24:06.922Z,9.07
2023-03-19T06:29:08.778Z,7.22
2023-03-19T06:34:10.584Z,6.68
2023-03-19T06:39:12.833Z,6.38
2023-03-19T06:44:14.788Z,6.03
2023-03-19T06:49:16.729Z,5.70
2023-03-19T06:54:18.597Z,6.07
2023-03-19T06:59:20.464Z,6.20
2023-03-19T07:04:22.588Z,6.80
2023-03-19T07:09:24.431Z,6.93
2023-03-19T07:14:26.452Z,7.03
2023-03-19T07:19:28.251Z,6.65
2023-03-19T07:24:30.013Z,6.80
2023-03-19T07:29:31.796Z,8.65
2023-03-19T07:34:33.608Z,9.98
2023-03-19T07:39:35.384Z,9.40
2023-03-19T07:44:37.130Z,9.40
2023-03-19T07:49:38.946Z,10.02
2023-03-19T07:54:40.874Z,11.60
2023-03-19T07:59:42.800Z,10.02
2023-03-19T08:04:44.771Z,9.25
2023-03-19T08:09:46.554Z,10.57
2023-03-19T08:14:48.308Z,9.10
2023-03-19T08:19:50.096Z,9.07
2023-03-19T08:24:51.931Z,7.45
2023-03-19T08:29:53.669Z,11.10
2023-03-19T08:34:55.867Z,9.40
2023-03-19T08:39:57.727Z,8.13
2023-03-19T08:44:59.516Z,6.05
2023-03-19T08:50:01.531Z,5.85
2023-03-19T08:55:03.745Z,5.80
2023-03-19T09:00:06.167Z,5.32
2023-03-19T09:05:08.372Z,4.88
2023-03-19T09:10:10.683Z,4.88
2023-03-19T09:15:12.471Z,4.10
2023-03-19T09:20:14.678Z,4.30
2023-03-19T09:25:16.538Z,3.67
2023-03-19T09:30:18.751Z,3.13
2023-03-19T09:35:20.538Z,3.67
2023-03-19T09:40:27.633Z,3.05
2023-03-19T09:45:29.953Z,2.83
2023-03-19T09:50:34.804Z,2.58
2023-03-19T09:55:49.818Z,3.03
2023-03-19T10:00:53.822Z,3.17
2023-03-19T10:06:20.335Z,2.35
2023-03-19T10:11:41.539Z,2.10
2023-03-19T10:16:47.290Z,1.90
2023-03-19T10:22:03.616Z,2.75
2023-03-19T10:27:14.191Z,1.85
2023-03-19T10:32:20.518Z,1.60
2023-03-19T10:37:28.965Z,1.90
2023-03-19T10:43:04.581Z,2.22
2023-03-19T10:48:12.397Z,1.90
2023-03-19T10:53:14.136Z,2.60
2023-03-19T10:58:19.066Z,2.92
2023-03-19T11:03:48.162Z,1.98
2023-03-19T11:08:57.312Z,2.13
2023-03-19T11:13:59.743Z,2.60
2023-03-19T11:19:01.561Z,1.63
2023-03-19T11:24:04.341Z,1.92
2023-03-19T11:29:06.167Z,1.50
2023-03-19T11:34:47.890Z,1.63
2023-03-19T11:40:01.634Z,1.75
2023-03-19T11:45:12.391Z,1.88
2023-03-19T11:50:25.212Z,2.00
2023-03-19T11:55:33.191Z,2.10
2023-03-19T12:00:52.306Z,3.88
2023-03-19T12:06:18.289Z,3.33
2023-03-19T12:11:33.724Z,2.33
2023-03-19T12:16:50.510Z,2.40
2023-03-19T12:22:28.481Z,2.40
2023-03-19T12:27:55.558Z,1.60
2023-03-19T12:33:27.132Z,2.17
2023-03-19T12:38:49.097Z,5.70
2023-03-19T12:44:09.713Z,5.63
2023-03-19T12:54:19.684Z,5.22
2023-03-19T12:59:51.046Z,6.15
2023-03-19T13:05:23.337Z,5.60
2023-03-19T13:10:26.736Z,4.30
2023-03-19T13:15:34.967Z,3.85
2023-03-19T13:20:48.977Z,4.40
2023-03-19T13:25:52.898Z,3.13
2023-03-19T13:31:06.781Z,4.22
2023-03-19T13:36:15.031Z,4.93
2023-03-19T13:41:35.938Z,4.40
2023-03-19T13:46:40.685Z,5.78
2023-03-19T13:51:47.664Z,4.57
2023-03-19T13:57:06.838Z,2.70
2023-03-19T14:02:27.039Z,2.25
2023-03-19T14:07:37.048Z,2.28
2023-03-19T14:12:41.390Z,3.63
2023-03-19T14:18:00.460Z,3.92
2023-03-19T14:23:08.970Z,3.60
2023-03-19T14:28:11.181Z,3.97
2023-03-19T14:33:20.296Z,5.03
2023-03-19T14:38:44.187Z,4.10
2023-03-19T14:44:13.548Z,4.90
2023-03-19T14:49:46.485Z,4.78
2023-03-19T14:54:57.461Z,4.15
2023-03-19T15:00:06.589Z,4.68
2023-03-19T15:05:29.828Z,4.45
2023-03-19T15:10:42.603Z,3.97
2023-03-19T15:16:09.766Z,3.95
2023-03-19T15:21:12.319Z,4.45
2023-03-19T15:26:14.308Z,3.83
2023-03-19T15:31:31.852Z,4.72
2023-03-19T15:36:38.864Z,4.80
2023-03-19T15:41:46.390Z,4.38
2023-03-19T15:46:49.424Z,3.80
2023-03-19T15:51:55.284Z,3.50
2023-03-19T15:56:58.058Z,3.35
2023-03-19T16:02:01.402Z,2.85
2023-03-19T16:07:03.416Z,2.88
2023-03-19T16:12:36.696Z,2.80
2023-03-19T16:17:40.255Z,2.30
2023-03-19T16:22:48.110Z,2.47
2023-03-19T16:27:51.509Z,2.70
2023-03-19T16:33:01.480Z,3.17
2023-03-19T16:38:52.241Z,4.50
2023-03-19T16:43:54.721Z,5.88
2023-03-19T16:48:56.464Z,6.03
2023-03-19T16:54:01.920Z,5.88
2023-03-19T16:59:03.887Z,6.65
2023-03-19T17:04:13.698Z,6.00
2023-03-19T17:09:15.754Z,7.50
2023-03-19T17:14:21.035Z,6.38
2023-03-19T17:19:34.853Z,6.43
2023-03-19T17:24:36.724Z,6.10
2023-03-19T17:29:38.785Z,5.63
2023-03-19T17:34:40.580Z,6.38
2023-03-19T17:39:43.328Z,7.63
2023-03-19T17:44:45.762Z,8.48
2023-03-19T17:49:47.830Z,8.18
2023-03-19T17:54:49.630Z,8.40
2023-03-19T17:59:51.419Z,5.32
2023-03-19T18:04:53.369Z,5.97
2023-03-19T18:09:55.424Z,4.57
2023-03-19T18:14:57.309Z,3.30
2023-03-19T18:19:59.158Z,3.38
2023-03-19T18:25:01.608Z,3.25
2023-03-19T18:30:03.728Z,3.83
2023-03-19T18:35:06.235Z,3.72
2023-03-19T18:40:13.341Z,3.90
2023-03-19T18:45:17.470Z,4.10
2023-03-19T18:50:25.970Z,3.60
2023-03-19T18:55:30.030Z,4.28
2023-03-19T19:00:34.359Z,3.85
2023-03-19T19:05:36.329Z,5.05
2023-03-19T19:10:40.391Z,4.47
2023-03-19T19:15:42.351Z,4.55
2023-03-19T19:20:46.118Z,5.28
2023-03-19T19:25:52.395Z,6.10
2023-03-19T19:30:57.460Z,7.10
2023-03-19T19:35:59.511Z,6.82
2023-03-19T19:41:01.432Z,7.22
2023-03-19T19:46:04.701Z,6.90
2023-03-19T19:51:08.318Z,6.10
2023-03-19T19:56:16.073Z,5.97
2023-03-19T20:01:22.918Z,4.43
2023-03-19T20:06:24.800Z,4.00
2023-03-19T20:11:27.131Z,5.10
2023-03-19T20:16:29.127Z,4.43
2023-03-19T20:21:32.572Z,5.03
2023-03-19T20:26:35.067Z,5.68
2023-03-19T20:31:37.580Z,5.53
2023-03-19T20:36:39.812Z,4.55
2023-03-19T20:41:42.083Z,5.50
2023-03-19T20:46:43.976Z,5.57
2023-03-19T20:51:45.824Z,5.75
2023-03-19T20:56:48.031Z,5.72
2023-03-19T21:01:50.394Z,5.90
2023-03-19T21:06:54.128Z,6.07
2023-03-19T21:11:56.308Z,7.22
2023-03-19T21:16:58.993Z,7.25
2023-03-19T21:22:00.851Z,6.63
2023-03-19T21:27:04.057Z,6.97
2023-03-19T21:32:11.315Z,7.13
2023-03-19T21:37:13.080Z,6.55
2023-03-19T21:42:21.191Z,6.78
2023-03-19T21:47:22.986Z,6.82
2023-03-19T21:52:24.898Z,6.38
2023-03-19T21:57:26.662Z,7.15
2023-03-19T22:02:28.394Z,6.25
2023-03-19T22:07:30.662Z,6.60
2023-03-19T22:12:34.260Z,6.30
2023-03-19T22:17:36.004Z,6.35
2023-03-19T22:22:37.760Z,6.15
2023-03-19T22:27:41.591Z,6.20
2023-03-19T22:32:43.382Z,6.97
2023-03-19T22:37:46.010Z,6.38
2023-03-19T22:42:48.957Z,7.10
2023-03-19T22:47:51.247Z,7.70
2023-03-19T22:52:53.804Z,7.15
2023-03-19T22:57:55.763Z,6.60
2023-03-19T23:02:57.827Z,6.72
2023-03-19T23:07:59.942Z,6.85
2023-03-19T23:13:02.861Z,6.72
2023-03-19T23:18:09.615Z,6.82
2023-03-19T23:23:13.396Z,4.75
2023-03-19T23:28:30.891Z,5.32
2023-03-19T23:33:32.742Z,5.65
2023-03-19T23:38:34.661Z,5.30
2023-03-19T23:43:36.689Z,5.47
2023-03-19T23:48:41.289Z,5.88
2023-03-19T23:53:43.989Z,5.82
2023-03-19T23:58:48.278Z,6.32
